Time;durP1;ratioP1;P1;durP2;ratioP2;P2;SDS_P1;SDS_P2;PMS_P1;PMS_P2;Temp;Humidity;BMP_temperature;BMP_pressure;BME280_temperature;BME280_humidity;BME280_pressure;Samples;Min_cycle;Max_cycle;Signal;HPM_P1;HPM_P2
2022/03/30 00:00:37;;;;;;;8.52;3.88;;;19.60;49.00;;;;;;5083178;28;20052;-75
2022/03/30 00:03:04;;;;;;;7.40;3.95;;;19.60;49.00;;;;;;5082660;28;20147;-73
2022/03/30 00:05:30;;;;;;;6.43;3.70;;;19.60;49.00;;;;;;5096647;28;20106;-73
2022/03/30 00:07:56;;;;;;;6.32;3.33;;;19.60;49.00;;;;;;5082261;28;20036;-74
2022/03/30 00:10:22;;;;;;;6.88;3.60;;;19.60;49.00;;;;;;5082770;28;20510;-73
2022/03/30 00:12:48;;;;;;;5.95;3.42;;;19.60;48.90;;;;;;5100946;28;20082;-74
2022/03/30 00:15:15;;;;;;;5.97;3.83;;;19.60;48.90;;;;;;5083067;28;20055;-73
2022/03/30 00:17:40;;;;;;;6.45;3.63;;;19.60;48.90;;;;;;5083976;28;20075;-74
2022/03/30 00:20:07;;;;;;;4.97;3.60;;;19.60;48.90;;;;;;5080864;28;20071;-73
2022/03/30 00:22:32;;;;;;;6.25;3.33;;;19.60;48.90;;;;;;5084580;28;20062;-74
2022/03/30 00:24:58;;;;;;;8.07;3.25;;;19.60;48.80;;;;;;5098632;28;20032;-74
2022/03/30 00:27:23;;;;;;;6.50;3.85;;;19.60;48.80;;;;;;5083484;28;20101;-74
2022/03/30 00:29:49;;;;;;;7.25;3.50;;;19.60;48.80;;;;;;5096289;28;20043;-73
2022/03/30 00:32:15;;;;;;;6.00;3.72;;;19.60;48.90;;;;;;5082759;28;20378;-72
2022/03/30 00:34:41;;;;;;;8.30;3.60;;;19.60;48.80;;;;;;5116999;28;20097;-74
2022/03/30 00:37:07;;;;;;;6.05;3.78;;;19.60;48.80;;;;;;5082815;28;20032;-75
2022/03/30 00:39:33;;;;;;;5.90;3.38;;;19.60;48.80;;;;;;5084874;28;20044;-73
2022/03/30 00:41:58;;;;;;;8.23;3.92;;;19.60;48.80;;;;;;5085366;28;20040;-73
2022/03/30 00:44:24;;;;;;;5.60;3.88;;;19.60;48.80;;;;;;5088097;28;20032;-77
2022/03/30 00:46:50;;;;;;;4.55;3.17;;;19.60;48.80;;;;;;5088402;28;20450;-76
2022/03/30 00:49:16;;;;;;;5.57;3.40;;;19.60;48.70;;;;;;5082154;28;20047;-75
2022/03/30 00:51:41;;;;;;;6.68;3.75;;;19.60;48.70;;;;;;5088095;28;20044;-75
2022/03/30 00:54:07;;;;;;;5.95;3.72;;;19.60;48.70;;;;;;5086261;28;20089;-75
2022/03/30 00:56:36;;;;;;;7.00;3.35;;;19.60;48.70;;;;;;5088313;28;20028;-74
2022/03/30 00:59:05;;;;;;;6.82;3.63;;;19.60;48.70;;;;;;5086235;28;20032;-73
2022/03/30 01:01:31;;;;;;;6.88;3.65;;;19.70;48.80;;;;;;5087145;28;20487;-74
2022/03/30 01:03:57;;;;;;;5.28;3.40;;;19.60;48.70;;;;;;5086650;28;20581;-74
2022/03/30 01:06:22;;;;;;;6.68;3.95;;;19.60;48.70;;;;;;5090459;28;20140;-73
2022/03/30 01:08:49;;;;;;;8.30;3.45;;;19.60;48.70;;;;;;5086364;28;20054;-74
2022/03/30 01:11:16;;;;;;;5.95;3.30;;;19.60;48.70;;;;;;5084253;28;20492;-74
2022/03/30 01:13:42;;;;;;;6.28;3.50;;;19.60;48.70;;;;;;5084413;28;20032;-74
2022/03/30 01:16:08;;;;;;;6.47;3.63;;;19.60;48.70;;;;;;5081401;28;20040;-72
2022/03/30 01:18:40;;;;;;;5.43;3.42;;;19.60;48.70;;;;;;5084137;28;20040;-72
2022/03/30 01:21:08;;;;;;;6.30;3.47;;;19.60;48.70;;;;;;5081293;28;20131;-72
2022/03/30 01:23:34;;;;;;;7.93;3.67;;;19.60;48.70;;;;;;5085005;28;20121;-71
2022/03/30 01:25:59;;;;;;;11.07;3.63;;;19.60;48.70;;;;;;5069578;28;20076;-71
2022/03/30 01:28:28;;;;;;;5.53;3.30;;;19.60;48.70;;;;;;5085812;28;20040;-71
2022/03/30 01:33:44;;;;;;;5.78;3.45;;;19.60;48.60;;;;;;5086088;28;20130;-71
2022/03/30 01:36:16;;;;;;;7.18;3.47;;;19.60;48.70;;;;;;5086169;28;20101;-72
2022/03/30 01:38:43;;;;;;;;;;;19.60;48.60;;;;;;5087362;28;20078;-72
2022/03/30 01:41:09;;;;;;;7.47;3.40;;;19.60;49.40;;;;;;5086708;28;19912;-72
2022/03/30 01:43:34;;;;;;;6.30;3.50;;;19.50;48.60;;;;;;5086671;28;20051;-72
2022/03/30 01:46:00;;;;;;;6.38;3.58;;;19.50;48.60;;;;;;5087950;28;20530;-72
2022/03/30 01:48:26;;;;;;;7.75;3.70;;;19.60;48.60;;;;;;5096305;28;20120;-71
2022/03/30 01:50:51;;;;;;;5.90;3.45;;;19.50;48.60;;;;;;5084987;28;20040;-71
2022/03/30 01:53:17;;;;;;;5.10;3.13;;;19.50;48.60;;;;;;5088026;28;20048;-72
2022/03/30 01:55:43;;;;;;;5.32;3.45;;;19.50;48.60;;;;;;5077193;28;20063;-71
2022/03/30 01:58:08;;;;;;;5.85;3.17;;;19.50;48.60;;;;;;5085463;28;20129;-72
2022/03/30 02:00:34;;;;;;;6.65;3.67;;;19.50;48.70;;;;;;5085477;28;20044;-74
2022/03/30 02:02:59;;;;;;;6.25;3.47;;;19.60;48.60;;;;;;5086787;28;20505;-74
2022/03/30 02:05:25;;;;;;;7.88;3.45;;;19.50;48.60;;;;;;5086121;28;20056;-74
2022/03/30 02:07:51;;;;;;;6.28;3.35;;;19.50;48.60;;;;;;5085642;28;20052;-73
2022/03/30 02:10:18;;;;;;;7.15;3.47;;;19.50;49.40;;;;;;5085702;28;20044;-74
2022/03/30 02:12:44;;;;;;;4.93;3.22;;;19.60;48.60;;;;;;5077933;28;20044;-74
2022/03/30 02:15:10;;;;;;;7.35;3.55;;;19.50;48.60;;;;;;5086199;28;20036;-74
2022/03/30 02:17:37;;;;;;;5.68;3.45;;;19.50;48.60;;;;;;5086817;28;20129;-73
2022/03/30 02:20:05;;;;;;;6.90;3.53;;;19.50;48.60;;;;;;5083762;28;20032;-73
2022/03/30 02:22:30;;;;;;;6.25;3.40;;;19.50;48.50;;;;;;5086970;28;20088;-74
2022/03/30 02:24:56;;;;;;;4.85;3.50;;;19.50;48.50;;;;;;5085725;28;20048;-73
2022/03/30 02:27:22;;;;;;;6.30;3.30;;;19.50;48.50;;;;;;5087665;28;20036;-72
2022/03/30 02:29:54;;;;;;;7.55;3.60;;;19.60;48.60;;;;;;5084105;28;20139;-73
2022/03/30 02:32:20;;;;;;;6.95;3.38;;;19.60;48.60;;;;;;5119230;27;20090;-74
2022/03/30 02:34:46;;;;;;;5.90;3.53;;;19.50;48.50;;;;;;5085171;28;20047;-72
2022/03/30 02:37:13;;;;;;;7.07;3.42;;;19.50;48.50;;;;;;5085902;28;20040;-72
2022/03/30 02:39:39;;;;;;;4.68;3.13;;;19.60;48.50;;;;;;5085760;28;20403;-73
2022/03/30 02:42:08;;;;;;;6.60;3.05;;;19.50;48.50;;;;;;5085090;28;20119;-72
2022/03/30 02:44:34;;;;;;;9.07;3.78;;;19.60;48.50;;;;;;5085797;28;20087;-72
2022/03/30 02:47:03;;;;;;;6.15;3.20;;;19.50;48.40;;;;;;5084491;28;20040;-73
2022/03/30 02:49:29;;;;;;;4.80;3.20;;;19.50;48.40;;;;;;5085208;28;20170;-71
2022/03/30 02:51:54;;;;;;;6.90;3.58;;;19.50;48.40;;;;;;5067129;28;20139;-71
2022/03/30 02:54:20;;;;;;;8.05;3.47;;;19.50;48.40;;;;;;5085179;28;20044;-72
2022/03/30 02:56:46;;;;;;;6.07;3.30;;;19.50;48.40;;;;;;5085806;28;20044;-73
2022/03/30 02:59:11;;;;;;;5.18;3.22;;;19.50;48.40;;;;;;5083717;28;20032;-71
2022/03/30 03:01:37;;;;;;;4.32;3.08;;;19.50;48.40;;;;;;5085093;28;20066;-71
2022/03/30 03:04:04;;;;;;;6.40;3.63;;;19.50;48.50;;;;;;5111380;27;20056;-73
2022/03/30 03:06:29;;;;;;;6.70;3.28;;;19.50;48.40;;;;;;5098521;27;20094;-73
2022/03/30 03:08:57;;;;;;;5.78;3.10;;;19.50;48.40;;;;;;5083281;28;20464;-72
2022/03/30 03:11:23;;;;;;;5.28;3.25;;;19.50;48.40;;;;;;5068653;28;20071;-73
2022/03/30 03:13:48;;;;;;;5.78;3.33;;;19.50;48.50;;;;;;5085743;28;20127;-73
2022/03/30 03:16:14;;;;;;;4.72;2.83;;;19.50;48.40;;;;;;5084218;28;20430;-74
2022/03/30 03:18:39;;;;;;;4.35;3.00;;;19.50;48.50;;;;;;5067163;28;20035;-72
2022/03/30 03:21:05;;;;;;;4.40;3.05;;;19.50;48.50;;;;;;5082631;28;20048;-73
2022/03/30 03:23:31;;;;;;;4.85;3.20;;;19.50;48.40;;;;;;5085272;28;20044;-72
2022/03/30 03:25:56;;;;;;;5.97;2.97;;;19.50;48.40;;;;;;5092392;28;20051;-72
2022/03/30 03:28:22;;;;;;;6.90;3.38;;;19.50;48.50;;;;;;5086237;28;20051;-72
2022/03/30 03:30:47;;;;;;;5.38;3.47;;;19.50;48.40;;;;;;5084419;28;20054;-72
2022/03/30 03:33:15;;;;;;;7.13;3.13;;;19.50;48.40;;;;;;5084543;28;20032;-72
2022/03/30 03:35:41;;;;;;;5.33;3.10;;;19.50;48.40;;;;;;5084038;28;20047;-71
2022/03/30 03:38:08;;;;;;;5.70;3.20;;;19.50;48.50;;;;;;5082116;28;20713;-72
2022/03/30 03:40:35;;;;;;;4.57;3.10;;;19.50;48.40;;;;;;5084720;28;20108;-73
2022/03/30 03:43:03;;;;;;;5.90;3.45;;;19.50;48.40;;;;;;5115831;27;20135;-72
2022/03/30 03:45:29;;;;;;;6.22;3.08;;;19.50;48.40;;;;;;5084319;28;20040;-72
2022/03/30 03:47:55;;;;;;;7.43;3.50;;;19.50;48.40;;;;;;5084160;28;20058;-71
2022/03/30 03:50:21;;;;;;;5.15;3.08;;;19.50;48.50;;;;;;5082587;28;20524;-72
2022/03/30 03:52:47;;;;;;;5.78;3.50;;;19.50;48.40;;;;;;5083727;28;20395;-72
2022/03/30 03:55:13;;;;;;;4.70;3.30;;;19.50;48.40;;;;;;5085017;28;20073;-71
2022/03/30 03:57:39;;;;;;;7.60;3.35;;;19.50;48.50;;;;;;5095257;28;20560;-71
2022/03/30 04:00:06;;;;;;;5.22;3.38;;;19.50;48.40;;;;;;5083550;28;20040;-74
2022/03/30 04:02:32;;;;;;;5.55;3.17;;;19.50;48.40;;;;;;5071210;28;20488;-73
2022/03/30 04:04:57;;;;;;;6.68;3.42;;;19.50;48.40;;;;;;5080187;28;20519;-72
2022/03/30 04:07:23;;;;;;;4.93;2.88;;;19.50;48.40;;;;;;5079947;28;20473;-72
2022/03/30 04:09:49;;;;;;;4.68;3.05;;;19.50;48.40;;;;;;5083398;28;20117;-72
2022/03/30 04:12:14;;;;;;;5.30;3.13;;;19.50;48.40;;;;;;5084993;28;20362;-71
2022/03/30 04:14:40;;;;;;;5.53;3.17;;;19.50;48.40;;;;;;5086342;28;20062;-73
2022/03/30 04:17:05;;;;;;;5.05;3.17;;;19.50;48.40;;;;;;5083718;28;20040;-73
2022/03/30 04:19:31;;;;;;;5.43;3.10;;;19.50;48.50;;;;;;5066870;28;20506;-72
2022/03/30 04:21:56;;;;;;;4.43;3.05;;;19.50;48.40;;;;;;5083035;28;20044;-72
2022/03/30 04:24:22;;;;;;;4.13;3.10;;;19.50;48.50;;;;;;5083815;28;20037;-72
2022/03/30 04:26:48;;;;;;;5.03;2.72;;;19.50;48.50;;;;;;5085250;28;20517;-73
2022/03/30 04:29:14;;;;;;;5.55;3.20;;;19.50;48.50;;;;;;5066627;28;20046;-72
2022/03/30 04:31:40;;;;;;;4.30;2.60;;;19.50;48.50;;;;;;5083898;28;20044;-73
2022/03/30 04:34:06;;;;;;;6.55;3.42;;;19.50;48.50;;;;;;5081738;28;20028;-72
2022/03/30 04:36:31;;;;;;;4.07;2.72;;;19.50;48.50;;;;;;5084236;28;20044;-71
2022/03/30 04:38:57;;;;;;;3.75;2.70;;;19.50;48.50;;;;;;5058700;28;20115;-71
2022/03/30 04:41:23;;;;;;;4.55;2.80;;;19.50;48.50;;;;;;5083052;28;20059;-72
2022/03/30 04:43:49;;;;;;;4.03;2.78;;;19.50;48.50;;;;;;5083495;28;20036;-71
2022/03/30 04:46:15;;;;;;;5.05;2.55;;;19.50;48.60;;;;;;5084865;28;20537;-72
2022/03/30 04:48:40;;;;;;;3.67;2.55;;;19.50;48.60;;;;;;5081965;28;20040;-72
2022/03/30 04:51:06;;;;;;;5.13;3.00;;;19.50;48.60;;;;;;5083843;28;20047;-71
2022/03/30 04:53:32;;;;;;;4.25;2.70;;;19.50;48.60;;;;;;5085355;28;20051;-72
2022/03/30 04:55:58;;;;;;;4.55;2.33;;;19.50;48.60;;;;;;5082608;28;20036;-72
2022/03/30 04:58:24;;;;;;;4.25;2.58;;;19.50;48.60;;;;;;5083537;28;20036;-72
2022/03/30 05:00:50;;;;;;;3.95;2.50;;;19.50;48.60;;;;;;5094674;28;20139;-72
2022/03/30 05:03:15;;;;;;;3.55;2.55;;;19.50;48.60;;;;;;5084320;28;20040;-72
2022/03/30 05:05:41;;;;;;;3.40;2.60;;;19.50;48.60;;;;;;5083641;28;20083;-72
2022/03/30 05:08:07;;;;;;;3.35;2.53;;;19.50;48.70;;;;;;5083642;28;20052;-71
2022/03/30 05:10:32;;;;;;;4.80;2.50;;;19.50;48.70;;;;;;5083265;28;20608;-73
2022/03/30 05:13:00;;;;;;;4.05;2.55;;;19.50;48.80;;;;;;5082897;28;20073;-71
2022/03/30 05:15:28;;;;;;;3.90;2.47;;;19.50;48.70;;;;;;5084005;28;20516;-72
2022/03/30 05:17:55;;;;;;;3.83;2.40;;;19.50;48.70;;;;;;5058248;28;20115;-71
2022/03/30 05:20:21;;;;;;;3.20;2.33;;;19.50;49.00;;;;;;5067050;28;20493;-70
2022/03/30 05:22:47;;;;;;;3.13;2.50;;;19.50;49.10;;;;;;5080487;28;20028;-70
2022/03/30 05:25:15;;;;;;;4.07;2.33;;;19.50;49.10;;;;;;5084586;28;20048;-71
2022/03/30 05:27:41;;;;;;;3.90;2.00;;;19.50;49.20;;;;;;5082595;28;20113;-72
2022/03/30 05:30:07;;;;;;;3.45;2.28;;;19.50;49.30;;;;;;5082942;28;20089;-70
2022/03/30 05:32:34;;;;;;;3.72;2.20;;;19.50;49.40;;;;;;5086986;28;20048;-70
2022/03/30 05:35:00;;;;;;;3.78;2.17;;;19.50;49.40;;;;;;5087236;28;20047;-71
2022/03/30 05:37:26;;;;;;;2.63;2.00;;;19.50;49.50;;;;;;5086243;28;20532;-71
2022/03/30 05:39:52;;;;;;;4.45;2.20;;;19.50;49.60;;;;;;5085266;28;20040;-72
2022/03/30 05:42:18;;;;;;;3.13;2.08;;;19.50;49.50;;;;;;5087063;28;20089;-71
2022/03/30 05:44:45;;;;;;;3.22;2.10;;;19.50;49.50;;;;;;5080803;28;20093;-72
2022/03/30 05:47:11;;;;;;;2.80;2.00;;;19.50;49.60;;;;;;5069144;28;20503;-71
2022/03/30 05:49:37;;;;;;;4.13;2.03;;;19.50;49.60;;;;;;5085999;28;20047;-71
2022/03/30 05:52:05;;;;;;;3.17;2.05;;;19.50;49.60;;;;;;5085501;28;20040;-71
2022/03/30 05:54:30;;;;;;;3.60;2.13;;;19.50;49.70;;;;;;5086666;28;20515;-71
2022/03/30 05:57:02;;;;;;;3.20;1.92;;;19.50;49.70;;;;;;5068978;28;20051;-70
2022/03/30 05:59:29;;;;;;;2.95;1.80;;;19.50;49.70;;;;;;5087329;28;20105;-71
2022/03/30 06:01:55;;;;;;;4.35;1.90;;;19.50;49.80;;;;;;5085232;28;20099;-73
2022/03/30 06:04:21;;;;;;;2.63;1.90;;;19.50;49.80;;;;;;5086351;28;20105;-73
2022/03/30 06:06:47;;;;;;;2.03;1.67;;;19.50;49.60;;;;;;5067728;28;20056;-74
2022/03/30 06:09:12;;;;;;;2.53;1.80;;;19.50;49.50;;;;;;5085136;28;20190;-72
2022/03/30 06:11:38;;;;;;;3.42;1.83;;;19.50;49.50;;;;;;5084297;28;20480;-74
2022/03/30 06:14:04;;;;;;;2.03;1.83;;;19.50;49.40;;;;;;5101431;28;20085;-74
2022/03/30 06:16:30;;;;;;;3.45;2.10;;;19.40;49.40;;;;;;5113624;27;20059;-73
2022/03/30 06:18:57;;;;;;;3.00;1.90;;;19.40;49.30;;;;;;5119490;27;20056;-73
2022/03/30 06:21:22;;;;;;;2.25;1.63;;;19.50;49.50;;;;;;5072671;28;20037;-73
2022/03/30 06:23:48;;;;;;;2.65;1.80;;;19.50;50.30;;;;;;5085860;28;20060;-73
2022/03/30 06:26:14;;;;;;;4.20;1.70;;;19.50;49.60;;;;;;5084921;28;20377;-75
2022/03/30 06:28:39;;;;;;;4.22;1.88;;;19.50;49.60;;;;;;5084707;28;20040;-75
2022/03/30 06:31:05;;;;;;;2.85;1.80;;;19.50;49.70;;;;;;5083407;28;20104;-73
2022/03/30 06:33:31;;;;;;;3.00;1.80;;;19.50;49.70;;;;;;5084942;28;20040;-73
2022/03/30 06:35:57;;;;;;;3.15;1.95;;;19.50;49.70;;;;;;5081203;28;20553;-73
2022/03/30 06:38:23;;;;;;;3.88;1.88;;;19.60;49.80;;;;;;5084584;28;20151;-72
2022/03/30 06:40:49;;;;;;;2.88;1.50;;;19.60;49.90;;;;;;5083151;28;20044;-74
2022/03/30 06:43:15;;;;;;;1.40;1.30;;;19.60;50.00;;;;;;5085249;28;20044;-73
2022/03/30 06:45:40;;;;;;;5.45;1.48;;;19.60;50.00;;;;;;5082683;28;20236;-75
2022/03/30 06:48:06;;;;;;;5.45;1.50;;;19.70;50.00;;;;;;5085290;28;20051;-75
2022/03/30 06:50:32;;;;;;;3.90;1.60;;;19.70;50.10;;;;;;5085994;28;20143;-74
2022/03/30 06:52:59;;;;;;;5.70;1.73;;;19.70;50.10;;;;;;5087384;28;20051;-74
2022/03/30 06:55:25;;;;;;;4.55;1.40;;;19.80;50.20;;;;;;5085378;28;21835;-75
2022/03/30 06:57:51;;;;;;;4.10;1.60;;;19.80;50.20;;;;;;5083934;28;20048;-73
2022/03/30 07:00:17;;;;;;;2.72;1.30;;;19.80;50.20;;;;;;5083195;28;20541;-74
2022/03/30 07:02:43;;;;;;;3.60;1.63;;;19.90;50.30;;;;;;5080757;28;20071;-74
2022/03/30 07:05:09;;;;;;;4.50;1.63;;;19.90;50.30;;;;;;5112767;27;20048;-73
2022/03/30 07:10:20;;;;;;;3.45;1.30;;;19.90;50.20;;;;;;5113897;27;20087;-74
2022/03/30 07:12:47;;;;;;;2.92;1.50;;;19.90;50.20;;;;;;5063827;28;20032;-72
2022/03/30 07:15:15;;;;;;;2.15;1.40;;;20.00;50.20;;;;;;5117683;27;20028;-74
2022/03/30 07:17:52;;;;;;;3.78;1.38;;;20.00;50.20;;;;;;5119340;27;20032;-74
2022/03/30 07:20:20;;;;;;;4.63;1.52;;;20.00;50.20;;;;;;5064541;28;20094;-74
2022/03/30 07:22:50;;;;;;;3.55;1.67;;;20.10;50.20;;;;;;5081358;28;20507;-74
2022/03/30 07:25:18;;;;;;;1.88;1.30;;;20.00;50.10;;;;;;5103217;27;20040;-74
2022/03/30 07:27:52;;;;;;;2.90;1.37;;;20.10;50.10;;;;;;5083158;28;20044;-72
2022/03/30 07:30:19;;;;;;;2.30;1.42;;;20.10;50.40;;;;;;5084280;28;20066;-72
2022/03/30 07:32:47;;;;;;;9.60;1.43;;;20.10;50.50;;;;;;5083207;28;20085;-72
2022/03/30 07:35:19;;;;;;;2.97;1.00;;;20.10;50.60;;;;;;5085074;28;20047;-74
2022/03/30 07:37:45;;;;;;;3.05;1.25;;;20.10;50.80;;;;;;5082437;28;20490;-74
2022/03/30 07:40:13;;;;;;;2.33;1.30;;;20.20;50.90;;;;;;5077413;28;20127;-74
2022/03/30 07:42:39;;;;;;;5.40;1.35;;;20.20;50.90;;;;;;5085917;28;20036;-73
2022/03/30 07:45:07;;;;;;;3.63;1.20;;;20.10;50.80;;;;;;5082294;28;20062;-74
2022/03/30 07:47:33;;;;;;;3.30;1.08;;;20.20;50.90;;;;;;5086665;28;20039;-71
2022/03/30 07:49:59;;;;;;;1.90;1.25;;;20.20;50.80;;;;;;5082412;28;20047;-71
2022/03/30 07:52:25;;;;;;;1.70;1.10;;;20.10;50.80;;;;;;5081225;28;20087;-71
2022/03/30 07:54:52;;;;;;;5.07;1.20;;;20.20;50.70;;;;;;5084554;28;20460;-71
2022/03/30 07:57:20;;;;;;;1.55;1.20;;;20.20;50.70;;;;;;5084125;28;20094;-72
2022/03/30 07:59:46;;;;;;;;;;;20.20;50.80;;;;;;5081970;28;20047;-70
2022/03/30 08:02:15;;;;;;;2.10;1.30;;;20.20;50.70;;;;;;5060333;28;20436;-73
2022/03/30 08:04:41;;;;;;;2.78;1.20;;;20.20;50.70;;;;;;5080413;28;20048;-72
2022/03/30 08:07:07;;;;;;;3.95;1.33;;;20.20;50.70;;;;;;5074498;28;20048;-72
2022/03/30 08:09:33;;;;;;;3.90;1.10;;;20.20;50.60;;;;;;5081500;28;20048;-74
2022/03/30 08:11:58;;;;;;;2.90;1.30;;;20.30;50.60;;;;;;5082621;28;20047;-73
2022/03/30 08:14:24;;;;;;;3.33;1.40;;;20.20;50.50;;;;;;5086079;28;20680;-73
2022/03/30 08:16:49;;;;;;;2.63;1.20;;;20.30;50.40;;;;;;5081673;28;20048;-73
2022/03/30 08:19:15;;;;;;;2.72;0.98;;;20.30;50.40;;;;;;5080729;28;20041;-72
2022/03/30 08:24:28;;;;;;;1.33;0.95;;;20.30;50.40;;;;;;5078588;28;20052;-72
2022/03/30 08:26:53;;;;;;;2.30;1.20;;;20.30;50.40;;;;;;5080469;28;20059;-73
2022/03/30 08:29:19;;;;;;;3.15;1.20;;;20.30;50.40;;;;;;5065806;28;20471;-73
2022/03/30 08:31:47;;;;;;;2.88;1.30;;;20.30;50.30;;;;;;5084737;28;20062;-73
2022/03/30 08:34:14;;;;;;;2.55;1.10;;;20.30;50.20;;;;;;5083806;28;20040;-73
2022/03/30 08:36:40;;;;;;;1.75;1.00;;;20.30;50.20;;;;;;5083099;28;20086;-73
2022/03/30 08:39:11;;;;;;;4.43;1.00;;;20.30;50.10;;;;;;5083878;28;20074;-74
2022/03/30 08:41:40;;;;;;;1.83;1.20;;;20.30;50.00;;;;;;5071408;28;20164;-75
2022/03/30 08:44:06;;;;;;;3.22;1.40;;;20.30;50.10;;;;;;5082130;28;20051;-74
2022/03/30 08:46:32;;;;;;;2.83;1.13;;;20.30;50.00;;;;;;5113193;28;20043;-74
2022/03/30 08:48:57;;;;;;;2.60;1.02;;;20.30;50.00;;;;;;5084437;28;20040;-75
2022/03/30 08:51:24;;;;;;;3.47;1.02;;;20.30;50.00;;;;;;5086345;28;20131;-72
2022/03/30 08:53:49;;;;;;;3.50;1.25;;;20.30;50.00;;;;;;5082655;28;20044;-72
2022/03/30 08:56:17;;;;;;;1.13;0.88;;;20.30;50.00;;;;;;5080301;28;20117;-74
2022/03/30 08:58:42;;;;;;;7.40;1.35;;;20.30;50.00;;;;;;5064068;28;20139;-73
2022/03/30 09:01:09;;;;;;;4.72;1.10;;;20.30;50.00;;;;;;5082759;28;20131;-72
2022/03/30 09:03:35;;;;;;;2.17;1.00;;;20.20;50.10;;;;;;5080754;28;20039;-72
2022/03/30 09:06:01;;;;;;;1.67;0.82;;;20.30;50.40;;;;;;5099528;28;20059;-72
2022/03/30 09:08:27;;;;;;;3.25;1.20;;;20.30;50.50;;;;;;5085201;28;20407;-74
2022/03/30 09:10:58;;;;;;;2.97;1.05;;;20.30;50.50;;;;;;5085393;28;20062;-71
2022/03/30 09:13:23;;;;;;;3.97;1.10;;;20.30;50.50;;;;;;5121371;27;20598;-73
2022/03/30 09:15:51;;;;;;;3.45;0.90;;;20.30;50.50;;;;;;5085753;28;20552;-75
2022/03/30 09:18:17;;;;;;;2.90;0.97;;;20.40;50.60;;;;;;5084959;28;20467;-73
2022/03/30 09:20:47;;;;;;;10.98;1.13;;;20.40;50.50;;;;;;5083352;28;20048;-71
2022/03/30 09:23:14;;;;;;;2.45;1.00;;;20.40;50.20;;;;;;5087415;28;20511;-71
2022/03/30 09:25:47;;;;;;;3.30;1.00;;;20.40;50.10;;;;;;5086944;28;20058;-71
2022/03/30 09:28:16;;;;;;;3.65;0.95;;;20.40;50.00;;;;;;5086116;28;20036;-70
2022/03/30 09:30:42;;;;;;;8.57;1.20;;;20.40;50.00;;;;;;5063586;28;20052;-73
2022/03/30 09:33:10;;;;;;;2.40;0.80;;;20.40;50.00;;;;;;5084389;28;20415;-74
2022/03/30 09:35:38;;;;;;;6.32;1.00;;;20.40;50.10;;;;;;5116459;27;20050;-74
2022/03/30 09:38:11;;;;;;;3.05;1.17;;;20.50;50.10;;;;;;5118963;27;20032;-74
2022/03/30 09:41:00;;;;;;;9.43;0.93;;;20.50;50.10;;;;;;5068365;28;20044;-75
2022/03/30 09:43:30;;;;;;;5.85;1.00;;;20.50;50.10;;;;;;5086047;28;20040;-72
2022/03/30 09:46:06;;;;;;;6.47;1.10;;;20.50;50.10;;;;;;5084523;28;20024;-73
2022/03/30 09:48:38;;;;;;;3.45;0.90;;;20.50;50.10;;;;;;5084589;28;20044;-72
2022/03/30 09:51:06;;;;;;;4.07;0.90;;;20.50;50.10;;;;;;5066431;28;20062;-72
2022/03/30 09:53:33;;;;;;;3.17;1.02;;;20.50;50.10;;;;;;5118815;27;20085;-72
2022/03/30 09:56:00;;;;;;;4.22;1.10;;;20.50;50.20;;;;;;5082270;28;20080;-75
2022/03/30 09:58:29;;;;;;;3.50;1.25;;;20.50;50.20;;;;;;5082881;28;20093;-72
2022/03/30 10:01:19;;;;;;;5.35;1.40;;;20.50;50.20;;;;;;5082300;28;20036;-72
2022/03/30 10:04:02;;;;;;;3.17;1.10;;;20.50;50.30;;;;;;5082389;28;20051;-75
2022/03/30 10:06:30;;;;;;;9.30;1.30;;;20.40;50.30;;;;;;5083845;28;20400;-75
2022/03/30 10:08:57;;;;;;;3.72;1.05;;;20.50;50.40;;;;;;5118039;27;20040;-74
2022/03/30 10:11:27;;;;;;;7.75;1.10;;;20.40;50.40;;;;;;5085326;28;20506;-73
2022/03/30 10:13:58;;;;;;;6.57;1.10;;;20.40;50.40;;;;;;5084336;28;20036;-73
2022/03/30 10:16:24;;;;;;;3.05;0.80;;;20.40;50.40;;;;;;5080706;28;20052;-75
2022/03/30 10:18:51;;;;;;;2.65;0.80;;;20.40;50.40;;;;;;5085975;28;20682;-74
2022/03/30 10:21:22;;;;;;;2.03;0.85;;;20.40;50.40;;;;;;5066265;28;20046;-79
2022/03/30 10:24:12;;;;;;;1.42;0.95;;;20.40;50.30;;;;;;5086074;28;20036;-75
2022/03/30 10:27:01;;;;;;;6.40;0.90;;;20.40;50.00;;;;;;5088056;28;20046;-72
2022/03/30 10:29:30;;;;;;;6.68;1.05;;;20.40;49.90;;;;;;5104751;27;20040;-72
2022/03/30 10:32:08;;;;;;;2.53;0.98;;;20.40;50.00;;;;;;5096463;28;20036;-72
2022/03/30 10:34:50;;;;;;;3.95;0.90;;;20.40;49.90;;;;;;5085160;28;20052;-72
2022/03/30 10:37:26;;;;;;;4.15;1.08;;;20.40;50.00;;;;;;5084492;28;20446;-73
2022/03/30 10:40:03;;;;;;;4.78;1.42;;;20.40;50.40;;;;;;5085721;28;20166;-71
2022/03/30 10:42:54;;;;;;;4.90;0.93;;;20.40;50.60;;;;;;5083487;28;20047;-72
2022/03/30 10:45:29;;;;;;;7.97;1.17;;;20.40;51.10;;;;;;5102765;28;20096;-72
2022/03/30 10:48:14;;;;;;;7.90;1.10;;;20.40;50.90;;;;;;5083517;28;20127;-72
2022/03/30 10:50:44;;;;;;;5.38;1.00;;;20.40;51.20;;;;;;5083340;28;20048;-73
2022/03/30 10:53:31;;;;;;;4.97;1.10;;;20.40;51.10;;;;;;5084571;28;20050;-72
2022/03/30 10:56:30;;;;;;;6.85;1.08;;;20.50;51.30;;;;;;5084362;28;20132;-73
2022/03/30 10:58:59;;;;;;;2.33;0.80;;;20.50;51.60;;;;;;5084252;28;20063;-73
2022/03/30 11:01:25;;;;;;;4.57;1.00;;;20.50;51.70;;;;;;5084368;28;20126;-71
2022/03/30 11:04:02;;;;;;;4.07;1.15;;;20.50;51.70;;;;;;5083916;28;20044;-73
2022/03/30 11:06:39;;;;;;;4.78;1.08;;;20.60;52.00;;;;;;5084738;28;20064;-73
2022/03/30 11:09:09;;;;;;;9.57;1.27;;;20.60;52.10;;;;;;5085281;28;20515;-72
2022/03/30 11:11:42;;;;;;;6.40;0.85;;;20.60;52.20;;;;;;5118199;27;20063;-70
2022/03/30 11:14:26;;;;;;;5.32;1.20;;;20.60;52.30;;;;;;5085315;28;20106;-72
2022/03/30 11:16:55;;;;;;;12.52;1.25;;;20.60;52.50;;;;;;5058382;28;20580;-70
2022/03/30 11:19:31;;;;;;;11.00;1.27;;;20.60;52.30;;;;;;5081215;28;20086;-71
2022/03/30 11:22:22;;;;;;;5.40;1.13;;;20.60;52.20;;;;;;5092616;28;20881;-71
2022/03/30 11:25:10;;;;;;;3.95;1.10;;;20.60;52.30;;;;;;5073558;28;20515;-73
2022/03/30 11:27:37;;;;;;;8.15;1.10;;;20.50;52.40;;;;;;5112028;27;20044;-71
2022/03/30 11:30:24;;;;;;;3.65;0.90;;;20.50;52.50;;;;;;5079668;28;20039;-70
2022/03/30 11:32:49;;;;;;;8.20;1.20;;;20.50;52.50;;;;;;5112785;27;20056;-70
2022/03/30 11:35:17;;;;;;;4.70;1.20;;;20.50;52.50;;;;;;5083794;28;20040;-71
2022/03/30 11:37:54;;;;;;;8.67;1.27;;;20.50;52.50;;;;;;5079875;28;20585;-71
2022/03/30 11:40:22;;;;;;;4.97;1.13;;;20.50;52.50;;;;;;5082245;28;20305;-69
2022/03/30 11:42:50;;;;;;;5.68;0.98;;;20.50;52.50;;;;;;5083367;28;20048;-70
2022/03/30 11:45:21;;;;;;;9.53;1.20;;;20.50;52.50;;;;;;5086114;28;20043;-70
2022/03/30 11:47:52;;;;;;;6.40;1.00;;;20.50;52.50;;;;;;5083614;28;20039;-71
2022/03/30 11:50:32;;;;;;;4.53;1.20;;;20.40;52.30;;;;;;5090520;28;20434;-70
2022/03/30 11:53:08;;;;;;;4.47;0.90;;;20.50;52.20;;;;;;5082346;28;20035;-71
2022/03/30 11:55:49;;;;;;;4.38;1.08;;;20.40;52.10;;;;;;5110956;27;20075;-71
2022/03/30 11:58:34;;;;;;;6.70;1.15;;;20.40;52.10;;;;;;5086008;28;20040;-71
2022/03/30 12:01:06;;;;;;;5.80;1.50;;;20.50;52.10;;;;;;5082955;28;20044;-72
2022/03/30 12:03:32;;;;;;;6.82;1.55;;;20.50;52.10;;;;;;5098615;28;20443;-73
2022/03/30 12:06:01;;;;;;;4.40;0.95;;;20.50;52.10;;;;;;5079375;28;20052;-73
2022/03/30 12:08:27;;;;;;;;;;;20.50;52.00;;;;;;5082462;28;20055;-73
2022/03/30 12:11:01;;;;;;;4.22;0.80;;;20.50;51.90;;;;;;5084124;28;19927;-71
2022/03/30 12:13:27;;;;;;;6.40;1.10;;;20.60;51.80;;;;;;5078063;28;20297;-73
2022/03/30 12:16:09;;;;;;;4.45;1.40;;;20.70;51.70;;;;;;5083303;28;20142;-72
2022/03/30 12:18:47;;;;;;;3.13;0.98;;;20.80;51.50;;;;;;5064581;28;20039;-73
2022/03/30 12:21:23;;;;;;;7.20;1.10;;;20.80;51.40;;;;;;5080511;28;20036;-72
2022/03/30 12:24:04;;;;;;;3.47;1.10;;;20.80;51.40;;;;;;5116406;28;20506;-72
2022/03/30 12:26:33;;;;;;;4.25;1.15;;;20.80;51.40;;;;;;5110669;28;20048;-71
2022/03/30 12:29:08;;;;;;;7.28;1.30;;;20.70;51.30;;;;;;5081220;28;20574;-73
2022/03/30 12:31:40;;;;;;;4.05;1.30;;;20.70;51.30;;;;;;5113277;28;20503;-73
2022/03/30 12:34:17;;;;;;;2.03;0.85;;;20.70;52.10;;;;;;5097827;28;20040;-73
2022/03/30 12:36:44;;;;;;;4.60;1.00;;;20.70;51.30;;;;;;5082023;28;20495;-71
2022/03/30 12:39:22;;;;;;;4.82;1.40;;;20.60;51.30;;;;;;5114150;27;20051;-74
2022/03/30 12:42:09;;;;;;;5.78;1.48;;;20.70;51.30;;;;;;5086373;28;20044;-72
2022/03/30 12:44:46;;;;;;;3.35;1.17;;;20.70;51.20;;;;;;5103149;28;20040;-72
2022/03/30 12:47:24;;;;;;;3.97;1.20;;;20.70;51.20;;;;;;5059069;28;20051;-73
2022/03/30 12:49:52;;;;;;;5.63;1.02;;;20.70;51.10;;;;;;5098558;28;20059;-72
2022/03/30 12:52:18;;;;;;;8.38;1.40;;;20.70;51.00;;;;;;5099333;28;20044;-72
2022/03/30 12:54:45;;;;;;;6.50;1.52;;;20.80;50.90;;;;;;5087290;28;20052;-72
2022/03/30 12:57:12;;;;;;;4.55;1.30;;;20.90;50.80;;;;;;5086569;28;20070;-74
2022/03/30 12:59:40;;;;;;;4.97;1.23;;;21.00;50.60;;;;;;5087676;28;20044;-73
2022/03/30 13:02:17;;;;;;;4.43;1.50;;;21.10;50.40;;;;;;5085238;28;20032;-75